createdAt,value
2023-08-14T00:01:37.825Z,100570.18
2023-08-14T00:04:06.230Z,100575.70
2023-08-14T00:06:34.679Z,100572.13
2023-08-14T00:09:03.824Z,100573.24
2023-08-14T00:11:32.227Z,100566.84
2023-08-14T00:14:01.064Z,100569.59
2023-08-14T00:16:29.180Z,100564.13
2023-08-14T00:18:57.196Z,100563.38
2023-08-14T00:21:25.360Z,100560.21
2023-08-14T00:23:53.467Z,100562.98
2023-08-14T00:26:21.758Z,100564.15
2023-08-14T00:28:50.031Z,100569.90
2023-08-14T00:31:18.417Z,100574.29
2023-08-14T00:33:46.727Z,100578.16
2023-08-14T00:36:14.824Z,100586.15
2023-08-14T00:38:42.913Z,100590.58
2023-08-14T00:41:12.084Z,100599.48
2023-08-14T00:43:40.361Z,100589.88
2023-08-14T00:46:08.820Z,100592.54
2023-08-14T00:48:38.575Z,100598.35
2023-08-14T00:51:06.754Z,100585.87
2023-08-14T00:53:34.927Z,100593.11
2023-08-14T00:56:04.275Z,100596.20
2023-08-14T00:58:32.603Z,100596.41
2023-08-14T01:01:01.424Z,100598.96
2023-08-14T01:03:30.057Z,100602.21
2023-08-14T01:05:58.309Z,100597.16
2023-08-14T01:08:26.495Z,100596.91
2023-08-14T01:11:37.403Z,100595.45
2023-08-14T01:14:24.499Z,100595.92
2023-08-14T01:16:59.769Z,100603.02
2023-08-14T01:19:37.935Z,100599.11
2023-08-14T01:22:26.400Z,100595.55
2023-08-14T01:24:54.358Z,100593.96
2023-08-14T01:27:23.834Z,100594.08
2023-08-14T01:29:58.178Z,100592.09
2023-08-14T01:32:26.467Z,100601.48
2023-08-14T01:34:56.588Z,100605.45
2023-08-14T01:37:24.644Z,100610.77
2023-08-14T01:40:04.837Z,100611.73
2023-08-14T01:42:39.226Z,100610.52
2023-08-14T01:45:18.424Z,100611.77
2023-08-14T01:47:49.402Z,100607.25
2023-08-14T01:50:19.322Z,100606.90
2023-08-14T01:52:47.673Z,100608.36
2023-08-14T01:55:16.270Z,100608.56
2023-08-14T01:57:44.198Z,100608.27
2023-08-14T02:00:12.730Z,100606.67
2023-08-14T02:02:40.799Z,100603.84
2023-08-14T02:05:09.148Z,100606.81
2023-08-14T02:07:37.164Z,100607.52
2023-08-14T02:10:05.695Z,100611.04
2023-08-14T02:12:33.738Z,100606.84
2023-08-14T02:15:04.706Z,100602.98
2023-08-14T02:17:32.771Z,100600.22
2023-08-14T02:20:00.826Z,100596.77
2023-08-14T02:22:29.240Z,100600.66
2023-08-14T02:24:57.311Z,100593.65
2023-08-14T02:27:25.403Z,100593.93
2023-08-14T02:29:53.512Z,100591.25
2023-08-14T02:32:21.620Z,100600.16
2023-08-14T02:34:51.384Z,100602.82
2023-08-14T02:37:19.867Z,100607.66
2023-08-14T02:39:49.180Z,100607.79
2023-08-14T02:42:18.728Z,100603.58
2023-08-14T02:44:49.169Z,100600.21
2023-08-14T02:47:17.953Z,100601.08
2023-08-14T02:49:45.917Z,100600.18
2023-08-14T02:52:13.902Z,100598.56
2023-08-14T02:54:41.990Z,100604.33
2023-08-14T02:57:10.108Z,100609.12
2023-08-14T02:59:38.195Z,100609.17
2023-08-14T03:02:06.489Z,100609.91
2023-08-14T03:04:35.097Z,100605.60
2023-08-14T03:07:04.123Z,100599.20
2023-08-14T03:09:32.274Z,100600.65
2023-08-14T03:12:00.306Z,100601.87
2023-08-14T03:14:28.620Z,100606.91
2023-08-14T03:16:56.781Z,100606.70
2023-08-14T03:19:25.157Z,100610.38
2023-08-14T03:21:53.949Z,100608.48
2023-08-14T03:24:22.451Z,100599.39
2023-08-14T03:26:50.507Z,100601.11
2023-08-14T03:29:19.507Z,100605.09
2023-08-14T03:31:47.747Z,100603.66
2023-08-14T03:34:15.889Z,100603.04
2023-08-14T03:36:44.789Z,100609.13
2023-08-14T03:39:14.416Z,100611.88
2023-08-14T03:41:42.702Z,100616.83
2023-08-14T03:44:10.740Z,100613.81
2023-08-14T03:46:40.237Z,100617.27
2023-08-14T03:49:09.511Z,100613.02
2023-08-14T03:51:38.394Z,100614.31
2023-08-14T03:54:07.631Z,100610.05
2023-08-14T03:56:35.782Z,100612.31
2023-08-14T03:59:06.029Z,100611.82
2023-08-14T04:02:49.727Z,100611.31
2023-08-14T04:05:18.496Z,100606.78
2023-08-14T04:07:47.430Z,100605.83
2023-08-14T04:10:15.458Z,100609.77
2023-08-14T04:12:44.720Z,100612.31
2023-08-14T04:15:16.424Z,100612.09
2023-08-14T04:17:45.637Z,100612.77
2023-08-14T04:20:14.250Z,100619.34
2023-08-14T04:22:42.680Z,100623.64
2023-08-14T04:25:11.012Z,100624.75
2023-08-14T04:27:39.766Z,100627.60
2023-08-14T04:34:37.362Z,100631.45
2023-08-14T04:37:06.373Z,100636.58
2023-08-14T04:39:36.220Z,100639.58
2023-08-14T04:42:04.385Z,100643.20
2023-08-14T04:44:32.506Z,100642.93
2023-08-14T04:47:00.916Z,100647.95
2023-08-14T04:49:31.027Z,100649.93
2023-08-14T04:51:58.995Z,100647.58
2023-08-14T04:54:28.380Z,100645.41
2023-08-14T04:56:56.604Z,100639.49
2023-08-14T04:59:24.719Z,100637.20
2023-08-14T05:01:55.280Z,100637.59
2023-08-14T05:04:24.640Z,100630.98
2023-08-14T05:06:53.104Z,100637.46
2023-08-14T05:09:27.118Z,100641.55
2023-08-14T05:11:57.453Z,100649.23
2023-08-14T05:14:25.429Z,100653.64
2023-08-14T05:16:53.554Z,100652.15
2023-08-14T05:19:21.594Z,100656.89
2023-08-14T05:21:49.873Z,100657.46
2023-08-14T05:24:17.962Z,100655.89
2023-08-14T05:26:45.897Z,100650.40
2023-08-14T05:29:13.989Z,100648.26
2023-08-14T05:31:41.981Z,100648.85
2023-08-14T05:34:10.210Z,100647.51
2023-08-14T05:36:38.214Z,100652.50
2023-08-14T05:39:07.160Z,100653.77
2023-08-14T05:41:35.376Z,100652.85
2023-08-14T05:44:03.469Z,100657.35
2023-08-14T05:46:31.822Z,100651.64
2023-08-14T05:48:59.781Z,100655.82
2023-08-14T05:51:27.838Z,100659.16
2023-08-14T05:53:56.005Z,100660.02
2023-08-14T05:56:24.008Z,100659.66
2023-08-14T05:58:52.045Z,100657.13
2023-08-14T06:01:19.976Z,100655.66
2023-08-14T06:03:48.099Z,100659.73
2023-08-14T06:06:16.225Z,100659.25
2023-08-14T06:08:44.238Z,100658.59
2023-08-14T06:11:12.098Z,100654.78
2023-08-14T06:13:40.239Z,100654.24
2023-08-14T06:16:08.611Z,100651.13
2023-08-14T06:18:37.695Z,100655.24
2023-08-14T06:21:06.389Z,100658.32
2023-08-14T06:23:35.722Z,100660.98
2023-08-14T06:26:05.203Z,100665.72
2023-08-14T06:28:33.296Z,100666.43
2023-08-14T06:31:03.372Z,100664.05
2023-08-14T06:33:32.061Z,100663.41
2023-08-14T06:36:00.308Z,100663.23
2023-08-14T06:38:28.575Z,100668.91
2023-08-14T06:40:56.573Z,100672.92
2023-08-14T06:43:24.661Z,100671.50
2023-08-14T06:45:52.708Z,100669.20
2023-08-14T06:48:21.068Z,100669.91
2023-08-14T06:50:49.034Z,100668.82
2023-08-14T06:53:17.030Z,100670.15
2023-08-14T06:55:48.477Z,100666.59
2023-08-14T06:58:16.576Z,100668.05
2023-08-14T07:00:47.479Z,100664.33
2023-08-14T07:03:15.798Z,100661.99
2023-08-14T07:05:43.772Z,100660.35
2023-08-14T07:08:11.647Z,100654.15
2023-08-14T07:10:39.966Z,100653.50
2023-08-14T07:13:32.621Z,100660.70
2023-08-14T07:16:00.859Z,100659.98
2023-08-14T07:18:29.476Z,100660.96
2023-08-14T07:20:59.361Z,100668.39
2023-08-14T07:23:27.308Z,100669.63
2023-08-14T07:25:56.703Z,100671.06
2023-08-14T07:28:24.934Z,100677.52
2023-08-14T07:30:53.038Z,100680.55
2023-08-14T07:33:20.922Z,100684.50
2023-08-14T07:35:48.916Z,100683.80
2023-08-14T07:38:16.853Z,100680.60
2023-08-14T07:40:46.122Z,100685.09
2023-08-14T07:43:14.237Z,100688.29
2023-08-14T07:45:42.560Z,100687.02
2023-08-14T07:48:10.917Z,100690.11
2023-08-14T07:50:38.969Z,100687.98
2023-08-14T07:53:07.309Z,100690.85
2023-08-14T07:55:35.359Z,100697.18
2023-08-14T07:58:03.410Z,100699.08
2023-08-14T08:00:32.521Z,100699.33
2023-08-14T08:03:00.545Z,100696.60
2023-08-14T08:05:28.980Z,100696.98
2023-08-14T08:07:57.339Z,100699.86
2023-08-14T08:10:25.464Z,100698.63
2023-08-14T08:12:53.598Z,100697.52
2023-08-14T08:15:21.625Z,100698.92
2023-08-14T08:17:49.795Z,100701.23
2023-08-14T08:20:17.864Z,100704.23
2023-08-14T08:22:46.102Z,100706.36
2023-08-14T08:25:14.198Z,100708.44
2023-08-14T08:27:42.197Z,100710.34
2023-08-14T08:30:10.651Z,100714.16
2023-08-14T08:32:39.380Z,100715.08
2023-08-14T08:35:08.069Z,100719.79
2023-08-14T08:37:36.087Z,100724.05
2023-08-14T08:40:06.288Z,100724.51
2023-08-14T08:42:34.436Z,100721.13
2023-08-14T08:45:05.419Z,100723.48
2023-08-14T08:47:37.266Z,100719.81
2023-08-14T08:50:08.772Z,100722.80
2023-08-14T08:52:38.150Z,100717.11
2023-08-14T08:55:08.704Z,100717.05
2023-08-14T08:57:39.597Z,100716.59
2023-08-14T09:00:08.817Z,100709.17
2023-08-14T09:02:37.639Z,100704.97
2023-08-14T09:05:06.671Z,100702.31
2023-08-14T09:07:35.297Z,100702.72
2023-08-14T09:10:03.694Z,100703.45
2023-08-14T09:12:32.005Z,100701.39
2023-08-14T09:15:02.638Z,100696.80
2023-08-14T09:17:30.835Z,100691.88
2023-08-14T09:20:00.257Z,100683.23
2023-08-14T09:22:29.048Z,100672.76
2023-08-14T09:24:58.033Z,100670.20
2023-08-14T09:27:27.733Z,100671.00
2023-08-14T09:29:56.452Z,100675.75
2023-08-14T09:32:25.836Z,100678.91
2023-08-14T09:35:00.320Z,100676.42
2023-08-14T09:37:28.440Z,100672.80
2023-08-14T09:40:16.615Z,100673.57
2023-08-14T09:42:45.841Z,100670.20
2023-08-14T09:45:15.086Z,100668.63
2023-08-14T09:47:45.575Z,100664.05
2023-08-14T09:50:15.060Z,100659.49
2023-08-14T09:52:46.720Z,100661.32
2023-08-14T09:55:15.463Z,100667.80
2023-08-14T09:57:43.588Z,100666.09
2023-08-14T10:00:13.878Z,100668.00
2023-08-14T10:02:42.264Z,100668.89
2023-08-14T10:05:10.848Z,100659.06
2023-08-14T10:07:40.333Z,100654.54
2023-08-14T10:10:09.446Z,100654.07
2023-08-14T10:12:47.601Z,100652.21
2023-08-14T10:15:18.170Z,100647.83
2023-08-14T10:17:56.511Z,100643.89
2023-08-14T10:20:24.831Z,100645.98
2023-08-14T10:22:56.719Z,100649.84
2023-08-14T10:25:25.059Z,100651.15
2023-08-14T10:27:53.450Z,100650.23
2023-08-14T10:30:25.342Z,100650.50
2023-08-14T10:32:53.652Z,100648.46
2023-08-14T10:35:22.253Z,100646.14
2023-08-14T10:38:00.801Z,100646.92
2023-08-14T10:40:37.582Z,100649.00
2023-08-14T10:43:08.272Z,100650.09
2023-08-14T10:45:36.385Z,100649.25
2023-08-14T10:48:09.526Z,100648.29
2023-08-14T10:50:39.275Z,100644.13
2023-08-14T10:53:07.777Z,100645.61
2023-08-14T10:55:41.015Z,100644.41
2023-08-14T10:58:28.074Z,100648.45
2023-08-14T11:04:38.508Z,100635.70
2023-08-14T11:07:10.405Z,100635.90
2023-08-14T11:09:39.815Z,100637.75
2023-08-14T11:12:09.660Z,100634.23
2023-08-14T11:14:40.926Z,100631.02
2023-08-14T11:17:11.808Z,100628.23
2023-08-14T11:19:40.448Z,100630.21
2023-08-14T11:22:09.226Z,100628.90
2023-08-14T11:24:39.316Z,100631.96
2023-08-14T11:27:07.649Z,100630.52
2023-08-14T11:29:45.014Z,100627.79
2023-08-14T11:32:23.710Z,100627.98
2023-08-14T11:34:53.120Z,100630.50
2023-08-14T11:37:21.326Z,100631.45
2023-08-14T11:39:50.477Z,100626.01
2023-08-14T11:42:19.106Z,100630.46
2023-08-14T11:44:47.733Z,100630.79
2023-08-14T11:47:18.316Z,100630.92
2023-08-14T11:49:46.438Z,100629.91
2023-08-14T11:52:14.638Z,100627.17
2023-08-14T11:54:46.131Z,100626.16
2023-08-14T11:57:14.980Z,100620.33
2023-08-14T11:59:45.585Z,100621.02
2023-08-14T12:02:13.498Z,100621.20
2023-08-14T12:04:42.141Z,100619.36
2023-08-14T12:07:10.603Z,100616.71
2023-08-14T12:09:39.470Z,100619.05
2023-08-14T12:12:07.774Z,100618.32
2023-08-14T12:14:41.708Z,100615.97
2023-08-14T12:17:16.972Z,100610.77
2023-08-14T12:19:54.229Z,100611.38
2023-08-14T12:22:23.998Z,100611.95
2023-08-14T12:24:53.014Z,100607.14
2023-08-14T12:27:24.300Z,100606.77
2023-08-14T12:29:53.767Z,100605.35
2023-08-14T12:32:23.812Z,100602.02
2023-08-14T12:34:53.595Z,100602.02
2023-08-14T12:37:22.144Z,100603.22
2023-08-14T12:39:55.600Z,100605.95
2023-08-14T12:42:23.765Z,100602.63
2023-08-14T12:44:54.372Z,100595.30
2023-08-14T12:47:23.029Z,100593.65
2023-08-14T12:49:51.566Z,100589.45
2023-08-14T12:52:19.728Z,100588.35
2023-08-14T12:55:04.439Z,100591.44
2023-08-14T12:57:34.430Z,100592.96
2023-08-14T13:00:03.807Z,100591.75
2023-08-14T13:02:35.259Z,100589.66
2023-08-14T13:05:05.223Z,100586.40
2023-08-14T13:07:34.230Z,100586.34
2023-08-14T13:10:03.123Z,100589.23
2023-08-14T13:12:31.423Z,100585.02
2023-08-14T13:14:59.598Z,100583.97
2023-08-14T13:17:28.500Z,100583.02
2023-08-14T13:19:56.743Z,100583.25
2023-08-14T13:22:25.072Z,100581.81
2023-08-14T13:24:55.124Z,100580.84
2023-08-14T13:27:23.554Z,100583.08
2023-08-14T13:29:52.080Z,100575.40
2023-08-14T13:32:20.610Z,100571.34
2023-08-14T13:34:50.628Z,100566.41
2023-08-14T13:37:18.901Z,100573.52
2023-08-14T13:39:48.302Z,100572.89
2023-08-14T13:42:16.300Z,100572.73
2023-08-14T13:44:44.967Z,100571.02
2023-08-14T13:47:12.935Z,100573.52
2023-08-14T13:49:41.014Z,100575.98
2023-08-14T13:52:08.988Z,100572.76
2023-08-14T13:54:38.005Z,100570.65
2023-08-14T13:57:06.497Z,100570.98
2023-08-14T13:59:34.561Z,100572.20
2023-08-14T14:02:04.011Z,100569.91
2023-08-14T14:04:32.281Z,100565.48
2023-08-14T14:07:00.203Z,100570.30
2023-08-14T14:09:28.345Z,100568.31
2023-08-14T14:11:56.280Z,100571.36
2023-08-14T14:14:24.235Z,100569.48
2023-08-14T14:16:56.090Z,100564.35
2023-08-14T14:19:25.690Z,100563.98
2023-08-14T14:21:55.920Z,100560.61
2023-08-14T14:24:25.507Z,100555.05
2023-08-14T14:26:53.931Z,100554.01
2023-08-14T14:29:22.111Z,100558.10
2023-08-14T14:31:50.081Z,100555.60
2023-08-14T14:34:18.731Z,100559.05
2023-08-14T14:36:46.957Z,100561.90
2023-08-14T14:39:19.628Z,100564.67
2023-08-14T14:41:48.937Z,100565.09
2023-08-14T14:44:17.021Z,100562.98
2023-08-14T14:46:45.361Z,100559.17
2023-08-14T14:49:13.361Z,100560.55
2023-08-14T14:51:41.292Z,100561.19
2023-08-14T14:54:09.345Z,100555.02
2023-08-14T14:56:38.445Z,100555.71
2023-08-14T14:59:06.713Z,100555.60
2023-08-14T15:01:34.716Z,100555.14
2023-08-14T15:04:04.291Z,100557.33
2023-08-14T15:06:32.531Z,100555.42
2023-08-14T15:09:00.626Z,100553.33
2023-08-14T15:11:28.695Z,100551.70
2023-08-14T15:13:56.818Z,100549.41
2023-08-14T15:16:25.157Z,100545.04
2023-08-14T15:18:53.041Z,100542.64
2023-08-14T15:21:21.093Z,100540.03
2023-08-14T15:23:49.064Z,100540.66
2023-08-14T15:26:17.167Z,100537.09
2023-08-14T15:28:45.378Z,100532.09
2023-08-14T15:31:16.236Z,100537.08
2023-08-14T15:33:44.185Z,100538.70
2023-08-14T15:36:12.169Z,100535.54
2023-08-14T15:38:40.312Z,100538.11
2023-08-14T15:41:11.950Z,100536.07
2023-08-14T15:43:42.116Z,100532.79
2023-08-14T15:46:10.206Z,100533.26
2023-08-14T15:48:41.263Z,100531.34
2023-08-14T15:51:09.295Z,100531.65
2023-08-14T15:53:37.167Z,100529.31
2023-08-14T15:56:05.183Z,100529.79
2023-08-14T15:58:33.092Z,100522.60
2023-08-14T16:01:01.060Z,100525.80
2023-08-14T16:03:29.176Z,100524.98
2023-08-14T16:05:58.750Z,100524.95
2023-08-14T16:08:26.939Z,100528.55
2023-08-14T16:10:54.868Z,100524.90
2023-08-14T16:13:23.151Z,100522.63
2023-08-14T16:15:51.168Z,100525.09
2023-08-14T16:18:19.086Z,100527.68
2023-08-14T16:20:47.126Z,100523.39
2023-08-14T16:23:17.155Z,100525.64
2023-08-14T16:25:45.205Z,100521.61
2023-08-14T16:28:13.291Z,100522.30
2023-08-14T16:30:41.711Z,100518.00
2023-08-14T16:33:10.439Z,100517.37
2023-08-14T16:35:39.540Z,100517.88
2023-08-14T16:38:07.679Z,100515.91
2023-08-14T16:40:42.819Z,100513.86
2023-08-14T16:43:11.534Z,100517.29
2023-08-14T16:45:40.893Z,100519.93
2023-08-14T16:48:11.289Z,100519.77
2023-08-14T16:50:40.503Z,100520.72
2023-08-14T16:53:09.948Z,100525.16
2023-08-14T16:55:38.371Z,100528.08
2023-08-14T16:58:06.424Z,100530.64
2023-08-14T17:00:34.517Z,100532.84
2023-08-14T17:03:05.704Z,100534.08
2023-08-14T17:05:33.844Z,100532.92
2023-08-14T17:08:03.138Z,100531.98
2023-08-14T17:10:33.171Z,100531.18
2023-08-14T17:13:02.530Z,100532.63
2023-08-14T17:15:41.521Z,100538.09
2023-08-14T17:18:09.561Z,100537.91
2023-08-14T17:20:44.532Z,100539.48
2023-08-14T17:23:13.191Z,100539.98
2023-08-14T17:25:41.405Z,100541.10
2023-08-14T17:28:09.349Z,100541.29
2023-08-14T17:30:40.634Z,100540.88
2023-08-14T17:33:08.606Z,100540.35
2023-08-14T17:35:36.706Z,100539.96
2023-08-14T17:38:05.001Z,100534.65
2023-08-14T17:40:33.709Z,100539.23
2023-08-14T17:43:02.040Z,100543.73
2023-08-14T17:45:30.944Z,100545.30
2023-08-14T17:47:59.660Z,100547.12
2023-08-14T17:50:29.391Z,100544.45
2023-08-14T17:52:57.716Z,100542.10
2023-08-14T17:55:25.679Z,100538.92
2023-08-14T17:57:53.756Z,100537.26
2023-08-14T18:00:22.982Z,100535.83
2023-08-14T18:02:52.322Z,100534.80
2023-08-14T18:05:20.490Z,100530.23
2023-08-14T18:07:48.806Z,100529.38
2023-08-14T18:10:16.842Z,100532.52
2023-08-14T18:12:46.676Z,100535.04
2023-08-14T18:15:14.780Z,100535.70
2023-08-14T18:17:42.865Z,100538.56
2023-08-14T18:20:11.864Z,100543.44
2023-08-14T18:22:40.258Z,100550.67
2023-08-14T18:25:08.647Z,100550.98
2023-08-14T18:27:36.999Z,100552.88
2023-08-14T18:30:05.500Z,100553.79
2023-08-14T18:32:33.409Z,100556.19
2023-08-14T18:35:01.297Z,100553.47
2023-08-14T18:37:29.169Z,100555.65
2023-08-14T18:39:57.211Z,100557.05
2023-08-14T18:42:25.600Z,100562.41
2023-08-14T18:44:53.530Z,100563.48
2023-08-14T18:47:21.450Z,100564.55
2023-08-14T18:49:49.406Z,100571.23
2023-08-14T18:52:17.393Z,100577.58
2023-08-14T18:54:48.792Z,100579.98
2023-08-14T18:57:17.425Z,100582.69
2023-08-14T18:59:47.884Z,100580.79
2023-08-14T19:04:42.286Z,100579.52
2023-08-14T19:07:12.215Z,100582.98
2023-08-14T19:09:41.217Z,100581.83
2023-08-14T19:12:09.323Z,100584.58
2023-08-14T19:14:37.792Z,100581.72
2023-08-14T19:17:06.146Z,100580.04
2023-08-14T19:19:34.725Z,100581.31
2023-08-14T19:22:03.003Z,100579.04
2023-08-14T19:24:31.170Z,100576.02
2023-08-14T19:26:59.076Z,100578.89
2023-08-14T19:29:27.033Z,100575.81
2023-08-14T19:31:55.011Z,100577.55
2023-08-14T19:34:23.011Z,100577.45
2023-08-14T19:36:51.204Z,100574.88
2023-08-14T19:39:19.273Z,100578.48
2023-08-14T19:41:50.816Z,100582.52
2023-08-14T19:44:18.930Z,100585.00
2023-08-14T19:46:47.047Z,100593.52
2023-08-14T19:49:15.278Z,100593.15
2023-08-14T19:51:43.559Z,100592.47
2023-08-14T19:54:11.486Z,100593.73
2023-08-14T19:56:39.693Z,100593.69
2023-08-14T19:59:09.116Z,100589.82
2023-08-14T20:01:37.924Z,100599.92
2023-08-14T20:04:07.047Z,100597.23
2023-08-14T20:06:35.386Z,100598.01
2023-08-14T20:09:03.573Z,100600.91
2023-08-14T20:11:31.909Z,100601.28
2023-08-14T20:14:01.087Z,100604.99
2023-08-14T20:16:29.512Z,100601.89
2023-08-14T20:18:57.580Z,100604.98
2023-08-14T20:21:25.760Z,100603.96
2023-08-14T20:23:53.696Z,100608.02
2023-08-14T20:26:21.767Z,100610.71
2023-08-14T20:28:50.206Z,100616.31
2023-08-14T20:31:19.711Z,100617.48
2023-08-14T20:33:47.956Z,100619.34
2023-08-14T20:36:20.334Z,100620.19
2023-08-14T20:38:49.505Z,100624.71
2023-08-14T20:41:18.188Z,100622.92
2023-08-14T20:43:46.236Z,100625.66
2023-08-14T20:46:15.279Z,100624.09
2023-08-14T20:48:43.300Z,100620.05
2023-08-14T20:51:11.576Z,100621.10
2023-08-14T20:53:40.855Z,100624.08
2023-08-14T20:56:08.966Z,100619.08
2023-08-14T20:58:37.272Z,100616.41
2023-08-14T21:01:05.963Z,100618.36
2023-08-14T21:03:34.048Z,100618.65
2023-08-14T21:06:02.227Z,100614.60
2023-08-14T21:08:30.441Z,100617.53
2023-08-14T21:11:00.728Z,100616.39
2023-08-14T21:13:30.512Z,100622.34
2023-08-14T21:15:59.525Z,100620.45
2023-08-14T21:18:27.556Z,100621.19
2023-08-14T21:20:55.691Z,100617.14
2023-08-14T21:23:23.703Z,100615.70
2023-08-14T21:25:51.657Z,100612.52
2023-08-14T21:28:19.764Z,100611.94
2023-08-14T21:30:47.956Z,100612.91
2023-08-14T21:33:16.039Z,100615.65
2023-08-14T21:35:46.895Z,100621.05
2023-08-14T21:38:14.900Z,100623.52
2023-08-14T21:40:42.954Z,100620.09
2023-08-14T21:43:11.127Z,100617.14
2023-08-14T21:45:41.213Z,100619.86
2023-08-14T21:48:09.490Z,100618.69
2023-08-14T21:50:38.749Z,100623.98
2023-08-14T21:53:06.962Z,100620.98
2023-08-14T21:55:35.003Z,100621.67
2023-08-14T21:58:03.119Z,100620.34
2023-08-14T22:00:31.285Z,100620.44
2023-08-14T22:02:59.375Z,100615.24
2023-08-14T22:05:27.516Z,100615.51
2023-08-14T22:07:57.390Z,100612.87
2023-08-14T22:10:25.382Z,100615.21
2023-08-14T22:12:53.408Z,100607.02
2023-08-14T22:15:24.737Z,100604.25
2023-08-14T22:17:58.202Z,100606.05
2023-08-14T22:20:26.386Z,100598.94
2023-08-14T22:22:54.239Z,100598.25
2023-08-14T22:25:22.919Z,100596.98
2023-08-14T22:27:51.047Z,100594.88
2023-08-14T22:30:19.113Z,100602.47
2023-08-14T22:32:47.101Z,100598.87
2023-08-14T22:35:15.595Z,100599.64
2023-08-14T22:37:43.953Z,100596.98
2023-08-14T22:40:12.089Z,100595.33
2023-08-14T22:42:40.894Z,100596.02
2023-08-14T22:45:09.824Z,100597.38
2023-08-14T22:47:39.634Z,100598.98
2023-08-14T22:50:09.806Z,100595.23
2023-08-14T22:52:38.068Z,100599.41
2023-08-14T22:55:07.077Z,100600.32
2023-08-14T22:57:35.514Z,100601.70
2023-08-14T23:00:04.363Z,100602.56
2023-08-14T23:02:32.246Z,100602.08
2023-08-14T23:05:00.146Z,100592.94
2023-08-14T23:07:28.151Z,100591.08
2023-08-14T23:09:56.056Z,100590.17
2023-08-14T23:12:24.364Z,100594.27
2023-08-14T23:14:52.713Z,100591.15
2023-08-14T23:17:20.737Z,100592.00
2023-08-14T23:19:48.772Z,100596.38
2023-08-14T23:22:16.791Z,100592.32
2023-08-14T23:24:44.833Z,100594.48
2023-08-14T23:27:12.765Z,100593.11
2023-08-14T23:29:41.670Z,100595.95
2023-08-14T23:32:11.940Z,100594.73
2023-08-14T23:34:41.176Z,100596.02
2023-08-14T23:37:09.283Z,100600.77
2023-08-14T23:39:37.259Z,100602.07
2023-08-14T23:42:05.729Z,100601.35
2023-08-14T23:44:33.625Z,100601.33
2023-08-14T23:47:03.570Z,100598.85
2023-08-14T23:49:31.629Z,100599.98
2023-08-14T23:51:59.506Z,100596.38
2023-08-14T23:54:27.367Z,100601.25
2023-08-14T23:56:55.387Z,100598.85
2023-08-14T23:59:23.414Z,100598.95
